createdAt,value
2022-12-04T00:00:08.419Z,60.01
2022-12-04T00:01:11.897Z,60.12
2022-12-04T00:02:13.429Z,60.29
2022-12-04T00:03:15.020Z,59.79
2022-12-04T00:04:16.663Z,59.81
2022-12-04T00:05:18.241Z,60.67
2022-12-04T00:06:19.889Z,60.13
2022-12-04T00:07:21.371Z,60.35
2022-12-04T00:08:22.881Z,60.33
2022-12-04T00:09:24.334Z,60.90
2022-12-04T00:10:26.114Z,60.08
2022-12-04T00:11:28.677Z,60.64
2022-12-04T00:12:30.173Z,60.58
2022-12-04T00:13:31.894Z,61.03
2022-12-04T00:14:33.392Z,60.62
2022-12-04T00:15:34.941Z,60.51
2022-12-04T00:16:36.510Z,61.08
2022-12-04T00:17:38.097Z,60.73
2022-12-04T00:18:39.559Z,60.70
2022-12-04T00:19:41.022Z,61.19
2022-12-04T00:20:42.493Z,60.32
2022-12-04T00:21:45.288Z,60.66
2022-12-04T00:22:47.006Z,60.23
2022-12-04T00:23:48.526Z,60.42
2022-12-04T00:24:50.013Z,60.90
2022-12-04T00:25:53.272Z,60.59
2022-12-04T00:26:54.908Z,60.34
2022-12-04T00:27:56.400Z,60.99
2022-12-04T00:28:58.042Z,60.22
2022-12-04T00:29:59.513Z,60.51
2022-12-04T00:31:01.057Z,60.56
2022-12-04T00:32:02.684Z,60.69
2022-12-04T00:33:04.190Z,60.55
2022-12-04T00:34:08.086Z,60.59
2022-12-04T00:35:10.048Z,60.23
2022-12-04T00:36:12.338Z,60.59
2022-12-04T00:37:13.813Z,60.45
2022-12-04T00:38:15.327Z,60.19
2022-12-04T00:39:16.817Z,60.20
2022-12-04T00:40:18.331Z,60.24
2022-12-04T00:41:21.181Z,60.28
2022-12-04T00:42:22.628Z,60.48
2022-12-04T00:43:24.192Z,60.06
2022-12-04T00:44:25.766Z,60.40
2022-12-04T00:45:27.374Z,60.51
2022-12-04T00:46:29.056Z,60.46
2022-12-04T00:47:30.585Z,60.15
2022-12-04T00:48:32.047Z,60.10
2022-12-04T00:49:33.557Z,60.31
2022-12-04T00:50:35.173Z,60.64
2022-12-04T00:51:36.657Z,60.78
2022-12-04T00:52:38.158Z,60.33
2022-12-04T00:53:39.647Z,60.40
2022-12-04T00:54:41.109Z,60.84
2022-12-04T00:55:43.143Z,60.73
2022-12-04T00:56:44.678Z,60.40
2022-12-04T00:57:46.811Z,60.36
2022-12-04T00:58:48.323Z,60.82
2022-12-04T00:59:49.796Z,60.68
2022-12-04T01:00:51.306Z,60.82
2022-12-04T01:01:52.800Z,60.82
2022-12-04T01:02:54.272Z,60.88
2022-12-04T01:03:55.865Z,60.81
2022-12-04T01:04:57.353Z,61.46
2022-12-04T01:05:59.253Z,60.88
2022-12-04T01:07:04.987Z,60.53
2022-12-04T01:08:06.994Z,60.98
2022-12-04T01:09:08.563Z,60.89
2022-12-04T01:10:11.311Z,60.82
2022-12-04T01:11:12.812Z,60.71
2022-12-04T01:12:20.409Z,60.72
2022-12-04T01:13:22.693Z,60.95
2022-12-04T01:14:24.141Z,60.73
2022-12-04T01:15:25.617Z,60.58
2022-12-04T01:16:31.511Z,60.25
2022-12-04T01:17:33.246Z,60.94
2022-12-04T01:18:34.708Z,60.91
2022-12-04T01:19:36.335Z,60.37
2022-12-04T01:20:37.824Z,60.01
2022-12-04T01:21:39.767Z,60.82
2022-12-04T01:22:41.298Z,60.82
2022-12-04T01:23:42.975Z,60.93
2022-12-04T01:24:44.521Z,60.73
2022-12-04T01:25:55.578Z,60.75
2022-12-04T01:26:57.047Z,60.47
2022-12-04T01:27:58.605Z,60.60
2022-12-04T01:29:00.118Z,60.54
2022-12-04T01:30:01.603Z,60.53
2022-12-04T01:31:07.168Z,60.07
2022-12-04T01:32:08.791Z,60.46
2022-12-04T01:33:10.269Z,60.06
2022-12-04T01:34:11.726Z,60.51
2022-12-04T01:35:13.217Z,60.62
2022-12-04T01:36:15.530Z,60.47
2022-12-04T01:37:17.068Z,60.27
2022-12-04T01:38:18.535Z,60.73
2022-12-04T01:39:20.056Z,60.12
2022-12-04T01:40:21.513Z,60.53
2022-12-04T01:41:24.330Z,60.17
2022-12-04T01:42:25.958Z,60.95
2022-12-04T01:43:28.668Z,60.59
2022-12-04T01:44:30.159Z,60.20
2022-12-04T01:45:31.590Z,60.28
2022-12-04T01:46:33.099Z,60.10
2022-12-04T01:47:34.606Z,60.54
2022-12-04T01:48:36.023Z,60.51
2022-12-04T01:49:38.637Z,60.61
2022-12-04T01:50:40.946Z,61.17
2022-12-04T01:51:44.123Z,60.57
2022-12-04T01:52:45.616Z,60.73
2022-12-04T01:53:47.788Z,60.64
2022-12-04T01:54:50.064Z,60.54
2022-12-04T01:55:51.617Z,60.66
2022-12-04T01:56:54.165Z,60.63
2022-12-04T01:57:56.044Z,60.92
2022-12-04T01:58:57.567Z,60.98
2022-12-04T02:00:00.539Z,61.01
2022-12-04T02:01:08.214Z,60.57
2022-12-04T02:02:15.152Z,60.93
2022-12-04T02:03:16.777Z,60.40
2022-12-04T02:04:18.231Z,60.28
2022-12-04T02:05:20.388Z,60.83
2022-12-04T02:06:21.861Z,60.70
2022-12-04T02:07:23.309Z,60.98
2022-12-04T02:08:25.265Z,61.10
2022-12-04T02:09:27.305Z,61.26
2022-12-04T02:10:35.167Z,61.37
2022-12-04T02:11:45.749Z,61.35
2022-12-04T02:13:03.064Z,61.66
2022-12-04T02:14:13.684Z,61.36
2022-12-04T02:15:28.507Z,61.07
2022-12-04T02:16:48.401Z,61.06
2022-12-04T02:18:01.203Z,61.19
2022-12-04T02:19:21.097Z,61.53
2022-12-04T02:20:25.700Z,61.55
2022-12-04T02:21:35.828Z,60.96
2022-12-04T02:23:03.539Z,61.25
2022-12-04T02:24:23.544Z,61.36
2022-12-04T02:25:43.574Z,61.24
2022-12-04T02:27:03.913Z,60.90
2022-12-04T02:28:08.366Z,60.33
2022-12-04T02:29:28.312Z,60.56
2022-12-04T02:30:30.426Z,60.63
2022-12-04T02:31:37.182Z,60.93
2022-12-04T02:32:38.662Z,61.01
2022-12-04T02:33:40.143Z,60.34
2022-12-04T02:34:42.443Z,60.82
2022-12-04T02:35:48.072Z,60.78
2022-12-04T02:37:00.584Z,60.47
2022-12-04T02:38:04.475Z,60.56
2022-12-04T02:39:07.843Z,60.55
2022-12-04T02:40:09.488Z,60.41
2022-12-04T02:41:31.191Z,60.44
2022-12-04T02:42:45.674Z,61.28
2022-12-04T02:43:50.971Z,61.28
2022-12-04T02:44:53.558Z,60.90
2022-12-04T02:45:58.179Z,61.14
2022-12-04T02:47:00.859Z,60.93
2022-12-04T02:48:02.741Z,61.00
2022-12-04T02:49:04.650Z,61.54
2022-12-04T02:50:07.432Z,61.35
2022-12-04T02:51:08.941Z,61.22
2022-12-04T02:52:12.145Z,61.48
2022-12-04T02:53:15.420Z,61.50
2022-12-04T02:54:19.409Z,61.85
2022-12-04T02:55:22.656Z,61.99
2022-12-04T02:56:27.378Z,61.43
2022-12-04T02:57:29.640Z,61.17
2022-12-04T02:58:31.919Z,60.86
2022-12-04T02:59:36.819Z,61.34
2022-12-04T03:00:38.288Z,61.42
2022-12-04T03:01:40.520Z,61.21
2022-12-04T03:02:57.196Z,61.60
2022-12-04T03:03:59.717Z,61.50
2022-12-04T03:05:03.284Z,61.94
2022-12-04T03:06:08.132Z,61.63
2022-12-04T03:07:12.033Z,61.58
2022-12-04T03:08:15.052Z,61.14
2022-12-04T03:09:23.885Z,61.31
2022-12-04T03:10:26.470Z,61.55
2022-12-04T03:11:28.570Z,61.59
2022-12-04T03:12:37.039Z,61.44
2022-12-04T03:13:42.230Z,61.64
2022-12-04T03:15:00.482Z,61.30
2022-12-04T03:16:04.381Z,61.54
2022-12-04T03:17:14.623Z,61.54
2022-12-04T03:18:21.718Z,62.01
2022-12-04T03:19:24.316Z,61.77
2022-12-04T03:20:25.774Z,61.61
2022-12-04T03:21:28.857Z,61.91
2022-12-04T03:22:30.388Z,61.27
2022-12-04T03:23:35.498Z,61.46
2022-12-04T03:24:38.039Z,61.73
2022-12-04T03:25:59.683Z,61.73
2022-12-04T03:27:08.649Z,61.62
2022-12-04T03:28:12.048Z,61.64
2022-12-04T03:29:18.770Z,61.07
2022-12-04T03:30:21.924Z,61.41
2022-12-04T03:31:26.659Z,61.37
2022-12-04T03:32:42.967Z,61.38
2022-12-04T03:33:45.148Z,61.76
2022-12-04T03:35:01.474Z,61.77
2022-12-04T03:36:02.932Z,61.54
2022-12-04T03:37:06.952Z,61.50
2022-12-04T03:38:13.821Z,60.94
2022-12-04T03:39:17.898Z,61.18
2022-12-04T03:40:23.411Z,60.75
2022-12-04T03:41:27.168Z,60.65
2022-12-04T03:42:48.515Z,60.33
2022-12-04T03:44:01.556Z,60.90
2022-12-04T03:45:12.075Z,60.94
2022-12-04T03:46:18.136Z,61.00
2022-12-04T03:47:20.967Z,61.29
2022-12-04T03:48:24.007Z,60.97
2022-12-04T03:49:25.515Z,60.83
2022-12-04T03:50:30.133Z,61.11
2022-12-04T03:51:36.462Z,61.03
2022-12-04T03:53:01.058Z,61.16
2022-12-04T03:54:03.997Z,60.97
2022-12-04T03:55:08.876Z,61.38
2022-12-04T03:56:12.138Z,60.92
2022-12-04T03:57:14.470Z,61.47
2022-12-04T03:58:17.390Z,61.35
2022-12-04T03:59:20.994Z,61.08
2022-12-04T04:00:23.103Z,61.89
2022-12-04T04:01:26.043Z,61.48
2022-12-04T04:02:28.590Z,61.40
2022-12-04T04:03:34.135Z,61.69
2022-12-04T04:04:36.153Z,61.47
2022-12-04T04:05:38.288Z,61.48
2022-12-04T04:06:41.052Z,60.96
2022-12-04T04:07:51.917Z,61.42
2022-12-04T04:08:54.715Z,61.10
2022-12-04T04:09:57.489Z,61.76
2022-12-04T04:10:59.327Z,61.64
2022-12-04T04:12:02.981Z,61.18
2022-12-04T04:13:23.127Z,61.14
2022-12-04T04:14:56.440Z,61.36
2022-12-04T04:16:16.822Z,61.57
2022-12-04T04:17:38.865Z,61.83
2022-12-04T04:18:59.345Z,61.77
2022-12-04T04:20:23.399Z,61.90
2022-12-04T04:21:44.458Z,61.51
2022-12-04T04:23:04.233Z,61.79
2022-12-04T04:24:14.847Z,61.24
2022-12-04T04:25:19.557Z,61.22
2022-12-04T04:26:21.147Z,61.84
2022-12-04T04:27:22.673Z,61.60
2022-12-04T04:28:34.360Z,61.24
2022-12-04T04:29:36.073Z,61.09
2022-12-04T04:30:37.534Z,61.18
2022-12-04T04:31:39.206Z,61.26
2022-12-04T04:32:45.870Z,61.49
2022-12-04T04:33:53.549Z,62.00
2022-12-04T04:34:55.049Z,61.43
2022-12-04T04:35:57.872Z,61.96
2022-12-04T04:37:02.164Z,61.93
2022-12-04T04:38:17.675Z,61.96
2022-12-04T04:39:19.254Z,61.57
2022-12-04T04:40:28.189Z,61.58
2022-12-04T04:41:52.616Z,61.80
2022-12-04T04:43:03.105Z,62.15
2022-12-04T04:44:23.187Z,61.96
2022-12-04T04:45:34.301Z,61.61
2022-12-04T04:46:37.606Z,62.29
2022-12-04T04:47:59.405Z,61.82
2022-12-04T04:49:01.529Z,62.13
2022-12-04T04:50:03.719Z,61.85
2022-12-04T04:51:05.261Z,61.46
2022-12-04T04:52:08.187Z,61.29
2022-12-04T04:53:10.208Z,61.30
2022-12-04T04:54:12.117Z,60.93
2022-12-04T04:55:13.617Z,61.46
2022-12-04T04:56:15.182Z,61.48
2022-12-04T04:57:29.193Z,61.13
2022-12-04T04:58:30.658Z,61.71
2022-12-04T04:59:32.349Z,61.71
2022-12-04T05:00:33.855Z,61.44
2022-12-04T05:01:35.536Z,61.51
2022-12-04T05:02:37.157Z,61.79
2022-12-04T05:03:38.725Z,61.65
2022-12-04T05:04:40.281Z,61.72
2022-12-04T05:05:41.768Z,61.95
2022-12-04T05:06:43.271Z,62.01
2022-12-04T05:07:44.841Z,62.40
2022-12-04T05:08:49.157Z,62.35
2022-12-04T05:09:50.660Z,62.04
2022-12-04T05:10:52.177Z,62.90
2022-12-04T05:11:53.687Z,62.82
2022-12-04T05:12:55.149Z,62.89
2022-12-04T05:13:56.577Z,62.81
2022-12-04T05:14:58.029Z,62.91
2022-12-04T05:16:03.572Z,62.56
2022-12-04T05:17:12.171Z,62.77
2022-12-04T05:18:14.194Z,62.07
2022-12-04T05:19:34.047Z,62.26
2022-12-04T05:20:38.274Z,62.27
2022-12-04T05:21:41.620Z,62.40
2022-12-04T05:22:43.212Z,62.74
2022-12-04T05:23:44.722Z,62.37
2022-12-04T05:24:46.305Z,62.24
2022-12-04T05:25:47.781Z,61.66
2022-12-04T05:26:49.249Z,62.54
2022-12-04T05:27:50.841Z,62.42
2022-12-04T05:28:52.342Z,62.26
2022-12-04T05:29:54.602Z,62.39
2022-12-04T05:31:00.147Z,62.52
2022-12-04T05:32:02.012Z,62.25
2022-12-04T05:33:03.562Z,62.73
2022-12-04T05:34:05.081Z,62.84
2022-12-04T05:35:11.019Z,62.55
2022-12-04T05:36:13.414Z,62.15
2022-12-04T05:37:14.905Z,62.48
2022-12-04T05:38:16.361Z,62.97
2022-12-04T05:39:18.098Z,62.54
2022-12-04T05:40:19.633Z,62.84
2022-12-04T05:41:21.150Z,62.34
2022-12-04T05:42:22.757Z,62.70
2022-12-04T05:43:24.239Z,62.94
2022-12-04T05:44:25.719Z,63.50
2022-12-04T05:45:27.231Z,62.88
2022-12-04T05:46:28.750Z,63.17
2022-12-04T05:47:30.278Z,62.88
2022-12-04T05:48:31.845Z,63.13
2022-12-04T05:49:33.510Z,63.28
2022-12-04T05:50:35.046Z,63.83
2022-12-04T05:51:36.674Z,63.66
2022-12-04T05:52:38.245Z,63.85
2022-12-04T05:53:39.735Z,63.73
2022-12-04T05:54:41.243Z,63.44
2022-12-04T05:55:42.863Z,63.92
2022-12-04T05:56:44.497Z,64.08
2022-12-04T05:57:46.055Z,63.92
2022-12-04T05:58:47.546Z,63.86
2022-12-04T05:59:50.179Z,64.22
2022-12-04T06:00:51.883Z,64.22
2022-12-04T06:01:53.436Z,63.76
2022-12-04T06:02:55.119Z,64.01
2022-12-04T06:03:56.755Z,64.01
2022-12-04T06:04:58.253Z,63.63
2022-12-04T06:05:59.739Z,63.42
2022-12-04T06:07:01.237Z,63.30
2022-12-04T06:08:02.787Z,63.77
2022-12-04T06:09:04.713Z,63.46
2022-12-04T06:10:06.419Z,63.64
2022-12-04T06:11:14.516Z,63.38
2022-12-04T06:12:16.035Z,63.43
2022-12-04T06:13:17.603Z,63.93
2022-12-04T06:14:19.139Z,63.76
2022-12-04T06:15:20.660Z,63.63
2022-12-04T06:16:23.017Z,63.29
2022-12-04T06:17:24.533Z,63.79
2022-12-04T06:18:26.033Z,63.37
2022-12-04T06:19:27.512Z,63.61
2022-12-04T06:20:29.097Z,63.51
2022-12-04T06:21:31.490Z,64.02
2022-12-04T06:22:32.962Z,63.36
2022-12-04T06:23:34.548Z,64.01
2022-12-04T06:24:36.043Z,64.01
2022-12-04T06:25:37.545Z,63.78
2022-12-04T06:26:52.032Z,63.70
2022-12-04T06:28:00.523Z,64.15
2022-12-04T06:29:02.005Z,63.58
2022-12-04T06:30:03.673Z,64.56
2022-12-04T06:31:06.347Z,63.94
2022-12-04T06:32:08.010Z,64.25
2022-12-04T06:33:09.567Z,64.34
2022-12-04T06:34:11.024Z,63.84
2022-12-04T06:35:12.463Z,63.57
2022-12-04T06:36:14.850Z,63.90
2022-12-04T06:37:16.311Z,64.36
2022-12-04T06:38:17.765Z,63.76
2022-12-04T06:39:19.371Z,63.85
2022-12-04T06:40:20.915Z,64.45
2022-12-04T06:41:22.409Z,64.19
2022-12-04T06:42:24.108Z,63.90
2022-12-04T06:43:25.720Z,63.52
2022-12-04T06:44:27.236Z,63.75
2022-12-04T06:45:28.780Z,63.94
2022-12-04T06:46:31.194Z,63.70
2022-12-04T06:47:33.891Z,64.21
2022-12-04T06:48:35.360Z,63.65
2022-12-04T06:49:36.910Z,64.01
2022-12-04T06:50:38.366Z,64.29
2022-12-04T06:51:40.929Z,64.16
2022-12-04T06:52:42.548Z,64.27
2022-12-04T06:53:44.103Z,64.13
2022-12-04T06:54:45.594Z,64.70
2022-12-04T06:55:49.794Z,64.49
2022-12-04T06:56:51.285Z,64.93
2022-12-04T06:57:52.882Z,64.16
2022-12-04T06:58:54.922Z,64.79
2022-12-04T06:59:56.619Z,64.43
2022-12-04T07:00:58.544Z,64.63
2022-12-04T07:02:00.142Z,64.78
2022-12-04T07:03:01.690Z,64.68
2022-12-04T07:04:04.176Z,64.34
2022-12-04T07:05:06.080Z,64.57
2022-12-04T07:06:14.109Z,63.96
2022-12-04T07:07:15.604Z,64.08
2022-12-04T07:08:17.209Z,64.04
2022-12-04T07:09:18.696Z,64.53
2022-12-04T07:10:20.168Z,64.50
2022-12-04T07:11:22.114Z,64.16
2022-12-04T07:12:23.617Z,64.61
2022-12-04T07:13:25.168Z,64.45
2022-12-04T07:14:26.626Z,64.68
2022-12-04T07:15:28.117Z,64.42
2022-12-04T07:16:31.035Z,64.44
2022-12-04T07:17:34.218Z,64.76
2022-12-04T07:18:35.820Z,64.82
2022-12-04T07:19:37.337Z,64.46
2022-12-04T07:20:39.409Z,64.21
2022-12-04T07:21:41.017Z,64.64
2022-12-04T07:22:42.541Z,64.84
2022-12-04T07:23:45.807Z,64.85
2022-12-04T07:24:47.506Z,64.53
2022-12-04T07:25:49.066Z,65.03
2022-12-04T07:26:50.542Z,64.40
2022-12-04T07:27:52.010Z,64.72
2022-12-04T07:28:53.860Z,64.94
2022-12-04T07:29:55.707Z,64.07
2022-12-04T07:30:57.397Z,64.45
2022-12-04T07:31:58.966Z,64.59
2022-12-04T07:33:00.546Z,64.43
2022-12-04T07:34:02.049Z,63.88
2022-12-04T07:35:03.900Z,64.26
2022-12-04T07:36:06.032Z,64.67
2022-12-04T07:37:07.881Z,64.19
2022-12-04T07:38:09.766Z,64.49
2022-12-04T07:39:11.331Z,63.73
2022-12-04T07:40:13.129Z,63.80
2022-12-04T07:41:14.643Z,64.30
2022-12-04T07:42:20.998Z,64.11
2022-12-04T07:43:25.832Z,64.00
2022-12-04T07:44:27.399Z,63.88
2022-12-04T07:45:28.928Z,64.57
2022-12-04T07:46:30.578Z,64.74
2022-12-04T07:47:32.155Z,64.52
2022-12-04T07:48:33.783Z,64.07
2022-12-04T07:49:35.328Z,64.28
2022-12-04T07:50:36.831Z,64.55
2022-12-04T07:51:38.325Z,64.30
2022-12-04T07:52:39.805Z,64.33
2022-12-04T07:53:41.237Z,64.53
2022-12-04T07:54:42.712Z,64.22
2022-12-04T07:55:44.185Z,63.74
2022-12-04T07:56:45.687Z,64.36
2022-12-04T07:57:47.153Z,63.93
2022-12-04T07:58:48.770Z,64.04
2022-12-04T07:59:50.318Z,63.80
2022-12-04T08:00:51.884Z,64.38
2022-12-04T08:01:53.585Z,63.78
2022-12-04T08:02:55.249Z,63.95
2022-12-04T08:03:57.127Z,64.00
2022-12-04T08:04:58.783Z,64.01
2022-12-04T08:06:01.538Z,63.61
2022-12-04T08:07:03.060Z,63.73
2022-12-04T08:08:04.774Z,63.92
2022-12-04T08:09:09.705Z,63.96
2022-12-04T08:10:11.858Z,64.00
2022-12-04T08:11:14.427Z,64.37
2022-12-04T08:12:15.850Z,64.27
2022-12-04T08:13:17.344Z,64.38
2022-12-04T08:14:18.825Z,64.35
2022-12-04T08:15:20.319Z,64.08
2022-12-04T08:16:21.884Z,64.07
2022-12-04T08:17:23.460Z,64.22
2022-12-04T08:18:24.963Z,64.33
2022-12-04T08:19:26.575Z,64.59
2022-12-04T08:20:28.025Z,64.49
2022-12-04T08:21:30.105Z,64.35
2022-12-04T08:22:31.604Z,64.20
2022-12-04T08:23:33.233Z,64.46
2022-12-04T08:24:34.688Z,64.08
2022-12-04T08:25:42.031Z,63.87
2022-12-04T08:26:43.526Z,63.95
2022-12-04T08:27:47.697Z,63.86
2022-12-04T08:28:49.489Z,64.33
2022-12-04T08:29:50.978Z,64.18
2022-12-04T08:30:52.523Z,63.54
2022-12-04T08:31:54.108Z,63.92
2022-12-04T08:32:55.600Z,63.98
2022-12-04T08:33:57.524Z,64.14
2022-12-04T08:34:59.046Z,63.73
2022-12-04T08:36:00.592Z,64.62
2022-12-04T08:37:02.112Z,64.37
2022-12-04T08:38:03.614Z,64.51
2022-12-04T08:39:05.150Z,64.14
2022-12-04T08:40:06.958Z,64.11
2022-12-04T08:41:09.148Z,64.29
2022-12-04T08:42:10.646Z,64.68
2022-12-04T08:43:12.118Z,63.92
2022-12-04T08:44:13.586Z,63.81
2022-12-04T08:45:15.329Z,64.58
2022-12-04T08:46:17.538Z,64.38
2022-12-04T08:47:19.063Z,64.67
2022-12-04T08:48:20.540Z,64.76
2022-12-04T08:49:22.163Z,64.64
2022-12-04T08:50:24.189Z,64.82
2022-12-04T08:51:26.528Z,64.29
2022-12-04T08:52:27.977Z,64.28
2022-12-04T08:53:30.381Z,64.13
2022-12-04T08:54:35.957Z,64.43
2022-12-04T08:55:37.838Z,64.47
2022-12-04T08:56:39.350Z,64.30
2022-12-04T08:57:40.810Z,64.80
2022-12-04T08:58:42.309Z,64.06
2022-12-04T08:59:43.740Z,64.38
2022-12-04T09:00:45.238Z,64.09
2022-12-04T09:01:46.789Z,64.26
2022-12-04T09:02:48.841Z,64.41
2022-12-04T09:03:50.289Z,64.70
2022-12-04T09:04:51.892Z,64.24
2022-12-04T09:05:53.626Z,64.29
2022-12-04T09:06:55.141Z,64.07
2022-12-04T09:07:56.834Z,64.19
2022-12-04T09:08:58.426Z,64.47
2022-12-04T09:10:00.149Z,64.47
2022-12-04T09:11:12.070Z,64.71
2022-12-04T09:12:13.553Z,64.30
2022-12-04T09:13:15.060Z,64.30
2022-12-04T09:14:16.905Z,64.05
2022-12-04T09:15:18.371Z,64.06
2022-12-04T09:16:20.896Z,63.93
2022-12-04T09:17:22.471Z,63.98
2022-12-04T09:18:23.915Z,64.73
2022-12-04T09:19:25.486Z,64.92
2022-12-04T09:20:26.957Z,64.25
2022-12-04T09:21:29.053Z,64.77
2022-12-04T09:22:45.860Z,64.37
2022-12-04T09:23:52.029Z,64.59
2022-12-04T09:24:53.687Z,64.28
2022-12-04T09:25:55.213Z,64.18
2022-12-04T09:26:56.713Z,64.68
2022-12-04T09:27:58.545Z,64.47
2022-12-04T09:29:00.487Z,64.54
2022-12-04T09:30:01.963Z,64.50
2022-12-04T09:31:04.482Z,64.48
2022-12-04T09:32:06.095Z,64.46
2022-12-04T09:33:07.584Z,64.26
2022-12-04T09:34:09.063Z,63.78
2022-12-04T09:35:10.603Z,64.32
2022-12-04T09:36:17.988Z,64.19
2022-12-04T09:37:19.495Z,64.25
2022-12-04T09:38:21.038Z,63.85
2022-12-04T09:39:22.515Z,63.75
2022-12-04T09:40:35.167Z,63.54
2022-12-04T09:41:48.120Z,64.07
2022-12-04T09:42:58.705Z,64.55
2022-12-04T09:44:02.253Z,64.45
2022-12-04T09:45:07.753Z,64.47
2022-12-04T09:46:27.759Z,64.18
2022-12-04T09:47:37.166Z,64.23
2022-12-04T09:48:39.770Z,63.89
2022-12-04T09:49:42.176Z,64.22
2022-12-04T09:50:44.042Z,64.17
2022-12-04T09:51:45.558Z,64.38
2022-12-04T09:52:57.885Z,63.74
2022-12-04T09:54:00.828Z,63.95
2022-12-04T09:55:02.928Z,63.39
2022-12-04T09:56:04.890Z,63.96
2022-12-04T09:57:26.643Z,63.72
2022-12-04T09:58:38.286Z,63.89
2022-12-04T09:59:39.787Z,63.97
2022-12-04T10:00:42.472Z,63.76
2022-12-04T10:01:47.059Z,63.86
2022-12-04T10:02:50.093Z,63.84
2022-12-04T10:03:52.186Z,64.13
2022-12-04T10:04:53.862Z,63.59
2022-12-04T10:06:06.545Z,63.59
2022-12-04T10:07:11.173Z,63.04
2022-12-04T10:08:19.293Z,63.65
2022-12-04T10:09:23.890Z,62.86
2022-12-04T10:10:35.544Z,63.29
2022-12-04T10:11:42.681Z,63.45
2022-12-04T10:12:50.353Z,63.33
2022-12-04T10:13:54.636Z,63.62
2022-12-04T10:15:14.810Z,63.34
2022-12-04T10:16:16.330Z,63.57
2022-12-04T10:17:37.240Z,63.33
2022-12-04T10:18:58.516Z,63.54
2022-12-04T10:20:23.104Z,63.58
2022-12-04T10:21:32.970Z,63.29
2022-12-04T10:22:37.345Z,63.38
2022-12-04T10:23:38.884Z,63.69
2022-12-04T10:24:40.342Z,63.48
2022-12-04T10:25:41.855Z,63.87
2022-12-04T10:26:46.813Z,63.80
2022-12-04T10:27:52.660Z,64.33
2022-12-04T10:28:58.295Z,64.02
2022-12-04T10:30:03.544Z,63.55
2022-12-04T10:31:05.084Z,63.98
2022-12-04T10:32:14.709Z,63.84
2022-12-04T10:33:34.527Z,64.23
2022-12-04T10:34:38.054Z,64.57
2022-12-04T10:35:42.965Z,64.15
2022-12-04T10:36:45.800Z,63.84
2022-12-04T10:37:47.555Z,64.46
2022-12-04T10:38:49.098Z,64.31
2022-12-04T10:39:50.542Z,64.52
2022-12-04T10:40:53.313Z,64.37
2022-12-04T10:41:57.572Z,64.45
2022-12-04T10:43:09.675Z,64.63
2022-12-04T10:44:14.724Z,64.26
2022-12-04T10:45:16.297Z,64.26
2022-12-04T10:46:23.975Z,64.52
2022-12-04T10:47:25.581Z,64.07
2022-12-04T10:48:36.365Z,63.80
2022-12-04T10:49:37.818Z,63.96
2022-12-04T10:50:40.505Z,63.91
2022-12-04T10:51:42.531Z,64.63
2022-12-04T10:52:44.110Z,64.07
2022-12-04T10:53:45.841Z,64.39
2022-12-04T10:54:51.348Z,64.99
2022-12-04T10:55:52.825Z,65.05
2022-12-04T10:56:55.218Z,64.71
2022-12-04T10:57:56.951Z,64.76
2022-12-04T10:58:59.466Z,64.73
2022-12-04T11:00:00.917Z,64.80
2022-12-04T11:01:03.334Z,64.46
2022-12-04T11:02:09.674Z,64.77
2022-12-04T11:03:22.559Z,65.18
2022-12-04T11:04:25.295Z,64.62
2022-12-04T11:05:29.813Z,64.85
2022-12-04T11:06:31.292Z,64.28
2022-12-04T11:07:45.441Z,64.75
2022-12-04T11:08:49.257Z,64.71
2022-12-04T11:10:16.959Z,64.72
2022-12-04T11:11:22.775Z,64.83
2022-12-04T11:12:24.306Z,64.48
2022-12-04T11:13:26.001Z,64.65
2022-12-04T11:14:27.513Z,64.71
2022-12-04T11:15:29.126Z,64.39
2022-12-04T11:16:36.707Z,64.63
2022-12-04T11:17:38.233Z,65.01
2022-12-04T11:18:49.204Z,64.83
2022-12-04T11:19:59.041Z,64.68
2022-12-04T11:21:06.708Z,65.13
2022-12-04T11:22:15.097Z,64.76
2022-12-04T11:23:16.558Z,65.01
2022-12-04T11:24:33.989Z,64.89
2022-12-04T11:25:35.864Z,64.26
2022-12-04T11:26:37.773Z,64.89
2022-12-04T11:27:39.387Z,64.63
2022-12-04T11:28:43.889Z,64.51
2022-12-04T11:29:45.734Z,64.61
2022-12-04T11:30:48.271Z,64.46
2022-12-04T11:31:50.645Z,64.41
2022-12-04T11:32:52.353Z,64.57
2022-12-04T11:34:04.953Z,64.32
2022-12-04T11:35:26.738Z,64.77
2022-12-04T11:36:29.661Z,64.59
2022-12-04T11:37:32.081Z,64.55
2022-12-04T11:38:34.209Z,64.27
2022-12-04T11:39:36.839Z,64.52
2022-12-04T11:40:38.384Z,64.62
2022-12-04T11:41:39.891Z,65.03
2022-12-04T11:42:41.364Z,65.10
2022-12-04T11:43:47.738Z,64.79
2022-12-04T11:44:50.081Z,65.00
2022-12-04T11:45:58.458Z,65.12
2022-12-04T11:47:01.931Z,64.74
2022-12-04T11:48:04.882Z,65.05
2022-12-04T11:49:06.525Z,65.21
2022-12-04T11:50:18.464Z,65.16
2022-12-04T11:51:26.415Z,65.29
2022-12-04T11:52:27.998Z,65.18
2022-12-04T11:53:49.742Z,64.88
2022-12-04T11:54:54.245Z,64.90
2022-12-04T11:55:58.446Z,65.07
2022-12-04T11:57:03.667Z,64.83
2022-12-04T11:58:08.188Z,64.97
2022-12-04T11:59:09.649Z,65.27
2022-12-04T12:00:11.276Z,65.40
2022-12-04T12:01:27.918Z,65.02
2022-12-04T12:02:35.263Z,65.40
2022-12-04T12:03:41.925Z,65.30
2022-12-04T12:04:52.211Z,65.75
2022-12-04T12:05:53.775Z,65.56
2022-12-04T12:06:55.323Z,65.72
2022-12-04T12:09:33.670Z,65.05
2022-12-04T12:10:46.902Z,65.62
2022-12-04T12:11:53.094Z,65.45
2022-12-04T12:12:54.525Z,65.14
2022-12-04T12:13:55.969Z,65.27
2022-12-04T12:15:15.968Z,65.75
2022-12-04T12:16:26.730Z,65.76
2022-12-04T12:17:28.238Z,65.64
2022-12-04T12:18:29.660Z,65.49
2022-12-04T12:19:37.216Z,65.79
2022-12-04T12:20:41.608Z,66.14
2022-12-04T12:21:43.057Z,65.93
2022-12-04T12:22:47.540Z,65.71
2022-12-04T12:23:49.025Z,66.00
2022-12-04T12:25:06.550Z,65.90
2022-12-04T12:26:17.500Z,65.93
2022-12-04T12:27:35.252Z,66.80
2022-12-04T12:28:43.729Z,66.32
2022-12-04T12:29:50.791Z,66.05
2022-12-04T12:31:06.388Z,66.15
2022-12-04T12:32:10.692Z,66.28
2022-12-04T12:33:17.494Z,66.76
2022-12-04T12:34:25.065Z,66.69
2022-12-04T12:35:26.529Z,66.51
2022-12-04T12:36:29.212Z,66.63
2022-12-04T12:37:50.875Z,66.31
2022-12-04T12:38:59.464Z,66.33
2022-12-04T12:40:01.060Z,66.22
2022-12-04T12:41:04.434Z,66.46
2022-12-04T12:42:05.872Z,66.82
2022-12-04T12:43:08.203Z,66.58
2022-12-04T12:44:14.538Z,67.24
2022-12-04T12:45:34.935Z,67.35
2022-12-04T12:46:41.411Z,66.77
2022-12-04T12:47:43.701Z,67.02
2022-12-04T12:49:00.182Z,67.13
2022-12-04T12:50:04.946Z,67.31
2022-12-04T12:51:29.550Z,66.77
2022-12-04T12:52:39.220Z,67.00
2022-12-04T12:53:41.308Z,67.24
2022-12-04T12:54:50.287Z,67.25
2022-12-04T12:55:52.994Z,67.55
2022-12-04T12:56:55.722Z,67.39
2022-12-04T12:58:09.987Z,67.44
2022-12-04T12:59:12.565Z,67.38
2022-12-04T13:00:14.157Z,67.33
2022-12-04T13:01:15.752Z,67.49
2022-12-04T13:02:36.096Z,67.50
2022-12-04T13:03:40.677Z,67.30
2022-12-04T13:04:42.279Z,67.36
2022-12-04T13:05:44.844Z,67.52
2022-12-04T13:06:47.051Z,67.08
2022-12-04T13:07:54.140Z,67.72
2022-12-04T13:09:06.881Z,67.95
2022-12-04T13:10:24.797Z,67.80
2022-12-04T13:11:26.306Z,67.49
2022-12-04T13:12:27.795Z,67.63
2022-12-04T13:13:49.566Z,68.10
2022-12-04T13:14:51.060Z,67.57
2022-12-04T13:15:58.385Z,68.09
2022-12-04T13:17:01.106Z,67.55
2022-12-04T13:18:02.701Z,67.80
2022-12-04T13:19:06.988Z,67.84
2022-12-04T13:20:10.478Z,67.84
2022-12-04T13:21:18.558Z,67.97
2022-12-04T13:22:26.865Z,67.77
2022-12-04T13:24:06.902Z,67.91
2022-12-04T13:25:27.977Z,68.10
2022-12-04T13:26:38.239Z,68.28
2022-12-04T13:27:55.287Z,67.95
2022-12-04T13:29:05.861Z,68.29
2022-12-04T13:30:19.557Z,68.58
2022-12-04T13:31:25.024Z,68.35
2022-12-04T13:32:29.146Z,67.84
2022-12-04T13:33:33.696Z,68.71
2022-12-04T13:34:47.597Z,68.06
2022-12-04T13:35:49.014Z,67.84
2022-12-04T13:37:14.270Z,68.06
2022-12-04T13:38:21.564Z,67.84
2022-12-04T13:39:41.330Z,68.06
2022-12-04T13:40:43.186Z,68.17
2022-12-04T13:41:44.717Z,67.72
2022-12-04T13:42:46.166Z,67.71
2022-12-04T13:43:48.301Z,67.95
2022-12-04T13:45:10.316Z,68.01
2022-12-04T13:46:23.219Z,68.43
2022-12-04T13:47:26.482Z,68.68
2022-12-04T13:48:39.574Z,68.26
2022-12-04T13:49:45.862Z,68.24
2022-12-04T13:50:47.485Z,67.97
2022-12-04T13:51:49.096Z,67.44
2022-12-04T13:52:50.656Z,67.86